PWSweather.com
Personal Weather Stations
Station Observations
RTINEZ
TerrassaES 08226

TerrassaES 08226

Lat: 41.5762194, Lon: 2.028993700000001

Elevation: 367

Station Type: Watson W8681

www.rtinez.cat

High Low Average
Temperature 84.7°F29.3°C 67.3°F19.6°C 73.9°F23.3°C
Dew Point 61.6°F16.4°C 51.1°F10.6°C 56.2°F13.4°C
Winds 11.4 mph 18.3 kmh Calm Calm 3.0 mph SE4.8 kmh SE
Wind Gusts 18.3 mph29.5 kmh -- 7.0 mph11.3 kmh
Humidity 76% 33% 55%
Pressure 30.07 in1018.3 mb 29.99 in1015.6 mb -
Precipitation 0.00 in0.0 mm - -
Hour Temp Dew Point Humidity Winds Wind Gusts Pressure Precip Precip Rate Daily Precip Total
12:00 AM 71.4°F21.9°C 53.4°F11.9°C 53% 0.7 mph W1.1 kmh W 2.2 mph3.5 kmh 30.01 in1016.3 mb 0.00 in0.0 mm 0.00 in0.0 mm 0.00 in0.0 mm
12:15 AM 71.2°F21.8°C 53.8°F12.1°C 54% 2.2 mph N3.5 kmh N 4.5 mph7.2 kmh 30.00 in1015.9 mb 0.00 in0.0 mm 0.00 in0.0 mm 0.00 in0.0 mm
12:30 AM 71.4°F21.9°C 52.4°F11.3°C 51% 3.1 mph NE5.0 kmh NE 6.0 mph9.7 kmh 30.01 in1016.3 mb 0.00 in0.0 mm 0.00 in0.0 mm 0.00 in0.0 mm
12:45 AM 72.1°F22.3°C 52.0°F11.1°C 49% 6.0 mph ENE9.7 kmh ENE 9.2 mph14.8 kmh 30.01 in1016.3 mb 0.00 in0.0 mm 0.00 in0.0 mm 0.00 in0.0 mm
01:00 AM 71.4°F21.9°C 52.9°F11.6°C 52% 1.6 mph NE2.6 kmh NE 9.2 mph14.8 kmh 30.02 in1016.6 mb 0.00 in0.0 mm 0.00 in0.0 mm 0.00 in0.0 mm
01:15 AM 70.7°F21.5°C 52.8°F11.6°C 53% 2.2 mph E3.5 kmh E 6.0 mph9.7 kmh 30.02 in1016.6 mb 0.00 in0.0 mm 0.00 in0.0 mm 0.00 in0.0 mm
01:30 AM 70.5°F21.4°C 53.1°F11.7°C 54% 2.2 mph E3.5 kmh E 7.6 mph12.2 kmh 30.02 in1016.6 mb 0.00 in0.0 mm 0.00 in0.0 mm 0.00 in0.0 mm
01:45 AM 70.2°F21.2°C 53.3°F11.8°C 55% 1.6 mph E2.6 kmh E 6.0 mph9.7 kmh 30.02 in1016.6 mb 0.00 in0.0 mm 0.00 in0.0 mm 0.00 in0.0 mm
02:00 AM 69.8°F21.0°C 52.9°F11.6°C 55% 2.2 mph NE3.5 kmh NE 3.8 mph6.1 kmh 30.01 in1016.3 mb 0.00 in0.0 mm 0.00 in0.0 mm 0.00 in0.0 mm
02:15 AM 69.6°F20.9°C 53.3°F11.8°C 56% 2.2 mph NNE3.5 kmh NNE 4.5 mph7.2 kmh 30.01 in1016.3 mb 0.00 in0.0 mm 0.00 in0.0 mm 0.00 in0.0 mm
02:30 AM 69.6°F20.9°C 53.3°F11.8°C 56% 3.1 mph N5.0 kmh N 6.0 mph9.7 kmh 30.00 in1015.9 mb 0.00 in0.0 mm 0.00 in0.0 mm 0.00 in0.0 mm
02:45 AM 70.0°F21.1°C 53.6°F12.0°C 56% 1.6 mph NE2.6 kmh NE 5.4 mph8.7 kmh 30.01 in1016.3 mb 0.00 in0.0 mm 0.00 in0.0 mm 0.00 in0.0 mm
03:00 AM 70.0°F21.1°C 54.1°F12.3°C 57% 2.2 mph NE3.5 kmh NE 3.8 mph6.1 kmh 29.99 in1015.6 mb 0.00 in0.0 mm 0.00 in0.0 mm 0.00 in0.0 mm
03:15 AM 70.2°F21.2°C 54.2°F12.3°C 57% 2.2 mph NNE3.5 kmh NNE 5.4 mph8.7 kmh 30.00 in1015.9 mb 0.00 in0.0 mm 0.00 in0.0 mm 0.00 in0.0 mm
03:30 AM 70.0°F21.1°C 54.1°F12.3°C 57% 1.6 mph NNE2.6 kmh NNE 4.5 mph7.2 kmh 30.00 in1015.9 mb 0.00 in0.0 mm 0.00 in0.0 mm 0.00 in0.0 mm
03:45 AM 70.0°F21.1°C 54.1°F12.3°C 57% 2.2 mph NE3.5 kmh NE 4.5 mph7.2 kmh 30.00 in1015.9 mb 0.00 in0.0 mm 0.00 in0.0 mm 0.00 in0.0 mm
04:00 AM 69.8°F21.0°C 54.4°F12.4°C 58% 0.7 mph NE1.1 kmh NE 2.2 mph3.5 kmh 30.00 in1015.9 mb 0.00 in0.0 mm 0.00 in0.0 mm 0.00 in0.0 mm
04:15 AM 69.6°F20.9°C 54.7°F12.6°C 59% Calm Calm 1.6 mph2.6 kmh 30.00 in1015.9 mb 0.00 in0.0 mm 0.00 in0.0 mm 0.00 in0.0 mm
04:30 AM 69.6°F20.9°C 55.1°F12.8°C 60% 2.2 mph NNE3.5 kmh NNE 3.1 mph5.0 kmh 30.00 in1015.9 mb 0.00 in0.0 mm 0.00 in0.0 mm 0.00 in0.0 mm
04:45 AM 69.6°F20.9°C 55.1°F12.8°C 60% 2.2 mph N3.5 kmh N 6.0 mph9.7 kmh 29.99 in1015.6 mb 0.00 in0.0 mm 0.00 in0.0 mm 0.00 in0.0 mm
05:00 AM 69.4°F20.8°C 55.0°F12.8°C 60% 3.1 mph NNW5.0 kmh NNW 4.5 mph7.2 kmh 30.00 in1015.9 mb 0.00 in0.0 mm 0.00 in0.0 mm 0.00 in0.0 mm
05:15 AM 69.1°F20.6°C 55.1°F12.8°C 61% 3.8 mph NNW6.1 kmh NNW 5.4 mph8.7 kmh 30.00 in1015.9 mb 0.00 in0.0 mm 0.00 in0.0 mm 0.00 in0.0 mm
05:30 AM 68.4°F20.2°C 54.9°F12.7°C 62% 3.1 mph NW5.0 kmh NW 6.9 mph11.1 kmh 30.00 in1015.9 mb 0.00 in0.0 mm 0.00 in0.0 mm 0.00 in0.0 mm
05:45 AM 68.7°F20.4°C 55.2°F12.9°C 62% 4.5 mph N7.2 kmh N 6.9 mph11.1 kmh 30.00 in1015.9 mb 0.00 in0.0 mm 0.00 in0.0 mm 0.00 in0.0 mm
06:00 AM 68.5°F20.3°C 55.0°F12.8°C 62% 2.2 mph NW3.5 kmh NW 4.5 mph7.2 kmh 30.00 in1015.9 mb 0.00 in0.0 mm 0.00 in0.0 mm 0.00 in0.0 mm
06:15 AM 68.4°F20.2°C 54.9°F12.7°C 62% Calm Calm 4.5 mph7.2 kmh 30.01 in1016.3 mb 0.00 in0.0 mm 0.00 in0.0 mm 0.00 in0.0 mm
06:30 AM 68.4°F20.2°C 54.9°F12.7°C 62% Calm Calm -- 30.02 in1016.6 mb 0.00 in0.0 mm 0.00 in0.0 mm 0.00 in0.0 mm
06:45 AM 68.4°F20.2°C 55.3°F12.9°C 63% Calm Calm -- 30.02 in1016.6 mb 0.00 in0.0 mm 0.00 in0.0 mm 0.00 in0.0 mm
07:00 AM 68.4°F20.2°C 55.3°F12.9°C 63% 1.6 mph N2.6 kmh N 2.2 mph3.5 kmh 30.02 in1016.6 mb 0.00 in0.0 mm 0.00 in0.0 mm 0.00 in0.0 mm
07:15 AM 69.8°F21.0°C 56.2°F13.4°C 62% Calm Calm 2.2 mph3.5 kmh 30.03 in1016.9 mb 0.00 in0.0 mm 0.00 in0.0 mm 0.00 in0.0 mm
07:30 AM 73.0°F22.8°C 56.4°F13.6°C 56% Calm Calm 1.6 mph2.6 kmh 30.02 in1016.6 mb 0.00 in0.0 mm 0.00 in0.0 mm 0.00 in0.0 mm
07:45 AM 74.8°F23.8°C 56.6°F13.7°C 53% Calm Calm 1.6 mph2.6 kmh 30.02 in1016.6 mb 0.00 in0.0 mm 0.00 in0.0 mm 0.00 in0.0 mm
08:00 AM 77.2°F25.1°C 57.1°F13.9°C 50% Calm Calm 2.2 mph3.5 kmh 30.03 in1016.9 mb 0.00 in0.0 mm 0.00 in0.0 mm 0.00 in0.0 mm
08:15 AM 79.3°F26.3°C 54.3°F12.4°C 42% 0.7 mph WNW1.1 kmh WNW 2.2 mph3.5 kmh 30.04 in1017.3 mb 0.00 in0.0 mm 0.00 in0.0 mm 0.00 in0.0 mm
08:30 AM 77.2°F25.1°C 54.8°F12.7°C 46% Calm Calm 2.2 mph3.5 kmh 30.04 in1017.3 mb 0.00 in0.0 mm 0.00 in0.0 mm 0.00 in0.0 mm
08:45 AM 77.2°F25.1°C 56.0°F13.3°C 48% 0.7 mph WSW1.1 kmh WSW 2.2 mph3.5 kmh 30.03 in1016.9 mb 0.00 in0.0 mm 0.00 in0.0 mm 0.00 in0.0 mm
09:00 AM 81.1°F27.3°C 54.6°F12.6°C 40% 0.7 mph S1.1 kmh S 3.1 mph5.0 kmh 30.04 in1017.3 mb 0.00 in0.0 mm 0.00 in0.0 mm 0.00 in0.0 mm
09:15 AM 80.8°F27.1°C 54.2°F12.3°C 40% 2.2 mph E3.5 kmh E 4.5 mph7.2 kmh 30.04 in1017.3 mb 0.00 in0.0 mm 0.00 in0.0 mm 0.00 in0.0 mm
09:30 AM 81.3°F27.4°C 54.7°F12.6°C 40% 1.6 mph S2.6 kmh S 5.4 mph8.7 kmh 30.04 in1017.3 mb 0.00 in0.0 mm 0.00 in0.0 mm 0.00 in0.0 mm
09:45 AM 80.8°F27.1°C 54.2°F12.3°C 40% 3.8 mph WSW6.1 kmh WSW 6.9 mph11.1 kmh 30.04 in1017.3 mb 0.00 in0.0 mm 0.00 in0.0 mm 0.00 in0.0 mm
10:00 AM 79.5°F26.4°C 53.8°F12.1°C 41% 3.1 mph WSW5.0 kmh WSW 6.0 mph9.7 kmh 30.04 in1017.3 mb 0.00 in0.0 mm 0.00 in0.0 mm 0.00 in0.0 mm
10:15 AM 81.3°F27.4°C 54.0°F12.2°C 39% 1.6 mph S2.6 kmh S 6.9 mph11.1 kmh 30.04 in1017.3 mb 0.00 in0.0 mm 0.00 in0.0 mm 0.00 in0.0 mm
10:30 AM 81.3°F27.4°C 53.3°F11.8°C 38% 1.6 mph SSW2.6 kmh SSW 6.9 mph11.1 kmh 30.05 in1017.6 mb 0.00 in0.0 mm 0.00 in0.0 mm 0.00 in0.0 mm
10:45 AM 81.9°F27.7°C 53.8°F12.1°C 38% 0.7 mph S1.1 kmh S 7.6 mph12.2 kmh 30.05 in1017.6 mb 0.00 in0.0 mm 0.00 in0.0 mm 0.00 in0.0 mm
11:00 AM 84.7°F29.3°C 52.5°F11.4°C 33% 1.6 mph NW2.6 kmh NW 3.8 mph6.1 kmh 30.04 in1017.3 mb 0.00 in0.0 mm 0.00 in0.0 mm 0.00 in0.0 mm
11:15 AM 82.2°F27.9°C 51.1°F10.6°C 34% 4.5 mph S7.2 kmh S 6.9 mph11.1 kmh 30.04 in1017.3 mb 0.00 in0.0 mm 0.00 in0.0 mm 0.00 in0.0 mm
11:30 AM 83.1°F28.4°C 52.7°F11.5°C 35% 1.6 mph S2.6 kmh S 7.6 mph12.2 kmh 30.04 in1017.3 mb 0.00 in0.0 mm 0.00 in0.0 mm 0.00 in0.0 mm
11:45 AM 82.8°F28.2°C 53.1°F11.7°C 36% 7.6 mph WSW12.2 kmh WSW 10.7 mph17.2 kmh 30.03 in1016.9 mb 0.00 in0.0 mm 0.00 in0.0 mm 0.00 in0.0 mm
12:00 PM 84.4°F29.1°C 53.8°F12.1°C 35% 3.1 mph N5.0 kmh N 9.8 mph15.8 kmh 30.03 in1016.9 mb 0.00 in0.0 mm 0.00 in0.0 mm 0.00 in0.0 mm
12:15 PM 84.7°F29.3°C 53.3°F11.8°C 34% 4.5 mph WNW7.2 kmh WNW 9.2 mph14.8 kmh 30.03 in1016.9 mb 0.00 in0.0 mm 0.00 in0.0 mm 0.00 in0.0 mm
12:30 PM 82.4°F28.0°C 54.3°F12.4°C 38% 3.8 mph SE6.1 kmh SE 10.7 mph17.2 kmh 30.02 in1016.6 mb 0.00 in0.0 mm 0.00 in0.0 mm 0.00 in0.0 mm
12:45 PM 84.4°F29.1°C 54.6°F12.6°C 36% 1.6 mph WSW2.6 kmh WSW 13.6 mph21.9 kmh 30.02 in1016.6 mb 0.00 in0.0 mm 0.00 in0.0 mm 0.00 in0.0 mm
01:00 PM 84.4°F29.1°C 53.0°F11.7°C 34% 11.4 mph SSW18.3 kmh SSW 14.5 mph23.3 kmh 30.01 in1016.3 mb 0.00 in0.0 mm 0.00 in0.0 mm 0.00 in0.0 mm
01:15 PM 82.8°F28.2°C 53.1°F11.7°C 36% 9.2 mph SSW14.8 kmh SSW 16.8 mph27.0 kmh 30.02 in1016.6 mb 0.00 in0.0 mm 0.00 in0.0 mm 0.00 in0.0 mm
01:30 PM 82.8°F28.2°C 57.4°F14.1°C 42% 7.6 mph S12.2 kmh S 13.0 mph20.9 kmh 30.02 in1016.6 mb 0.00 in0.0 mm 0.00 in0.0 mm 0.00 in0.0 mm
01:45 PM 82.2°F27.9°C 58.2°F14.6°C 44% 10.7 mph SSE17.2 kmh SSE 15.2 mph24.5 kmh 30.01 in1016.3 mb 0.00 in0.0 mm 0.00 in0.0 mm 0.00 in0.0 mm
02:00 PM 81.0°F27.2°C 60.0°F15.6°C 49% 7.6 mph SE12.2 kmh SE 16.8 mph27.0 kmh 30.01 in1016.3 mb 0.00 in0.0 mm 0.00 in0.0 mm 0.00 in0.0 mm
02:15 PM 81.1°F27.3°C 59.6°F15.3°C 48% 9.2 mph SSE14.8 kmh SSE 16.8 mph27.0 kmh 30.01 in1016.3 mb 0.00 in0.0 mm 0.00 in0.0 mm 0.00 in0.0 mm
02:30 PM 81.5°F27.5°C 60.0°F15.6°C 48% 9.2 mph SSE14.8 kmh SSE 18.3 mph29.5 kmh 30.01 in1016.3 mb 0.00 in0.0 mm 0.00 in0.0 mm 0.00 in0.0 mm
02:45 PM 80.4°F26.9°C 60.1°F15.6°C 50% 9.8 mph SSE15.8 kmh SSE 15.9 mph25.6 kmh 30.01 in1016.3 mb 0.00 in0.0 mm 0.00 in0.0 mm 0.00 in0.0 mm
03:00 PM 78.6°F25.9°C 59.6°F15.3°C 52% 6.9 mph SE11.1 kmh SE 15.2 mph24.5 kmh 30.01 in1016.3 mb 0.00 in0.0 mm 0.00 in0.0 mm 0.00 in0.0 mm
03:15 PM 77.2°F25.1°C 58.8°F14.9°C 53% 7.6 mph SE12.2 kmh SE 14.5 mph23.3 kmh 30.01 in1016.3 mb 0.00 in0.0 mm 0.00 in0.0 mm 0.00 in0.0 mm
03:30 PM 76.5°F24.7°C 59.1°F15.1°C 55% 6.9 mph SE11.1 kmh SE 14.5 mph23.3 kmh 30.01 in1016.3 mb 0.00 in0.0 mm 0.00 in0.0 mm 0.00 in0.0 mm
03:45 PM 76.3°F24.6°C 59.0°F15.0°C 55% 8.3 mph SE13.4 kmh SE 11.4 mph18.3 kmh 30.01 in1016.3 mb 0.00 in0.0 mm 0.00 in0.0 mm 0.00 in0.0 mm
04:00 PM 74.1°F23.4°C 57.9°F14.4°C 57% 3.8 mph SE6.1 kmh SE 14.5 mph23.3 kmh 30.03 in1016.9 mb 0.00 in0.0 mm 0.00 in0.0 mm 0.00 in0.0 mm
04:15 PM 77.0°F25.0°C 58.6°F14.8°C 53% 7.6 mph SE12.2 kmh SE 11.4 mph18.3 kmh 30.02 in1016.6 mb 0.00 in0.0 mm 0.00 in0.0 mm 0.00 in0.0 mm
04:30 PM 74.7°F23.7°C 56.9°F13.8°C 54% 8.3 mph SE13.4 kmh SE 13.6 mph21.9 kmh 30.01 in1016.3 mb 0.00 in0.0 mm 0.00 in0.0 mm 0.00 in0.0 mm
04:45 PM 73.6°F23.1°C 57.4°F14.1°C 57% 5.4 mph SE8.7 kmh SE 11.4 mph18.3 kmh 30.01 in1016.3 mb 0.00 in0.0 mm 0.00 in0.0 mm 0.00 in0.0 mm
05:00 PM 73.4°F23.0°C 57.3°F14.1°C 57% 5.4 mph SE8.7 kmh SE 10.7 mph17.2 kmh 30.02 in1016.6 mb 0.00 in0.0 mm 0.00 in0.0 mm 0.00 in0.0 mm
05:15 PM 73.0°F22.8°C 57.9°F14.4°C 59% 3.8 mph E6.1 kmh E 9.2 mph14.8 kmh 30.03 in1016.9 mb 0.00 in0.0 mm 0.00 in0.0 mm 0.00 in0.0 mm
05:30 PM 72.7°F22.6°C 57.6°F14.2°C 59% 4.5 mph ESE7.2 kmh ESE 9.8 mph15.8 kmh 30.03 in1016.9 mb 0.00 in0.0 mm 0.00 in0.0 mm 0.00 in0.0 mm
05:45 PM 73.2°F22.9°C 58.5°F14.7°C 60% 4.5 mph ESE7.2 kmh ESE 9.8 mph15.8 kmh 30.03 in1016.9 mb 0.00 in0.0 mm 0.00 in0.0 mm 0.00 in0.0 mm
06:00 PM 72.5°F22.5°C 58.8°F14.9°C 62% 6.0 mph SE9.7 kmh SE 10.7 mph17.2 kmh 30.03 in1016.9 mb 0.00 in0.0 mm 0.00 in0.0 mm 0.00 in0.0 mm
06:15 PM 72.1°F22.3°C 58.0°F14.4°C 61% 4.5 mph SE7.2 kmh SE 8.3 mph13.4 kmh 30.03 in1016.9 mb 0.00 in0.0 mm 0.00 in0.0 mm 0.00 in0.0 mm
06:30 PM 72.3°F22.4°C 58.1°F14.5°C 61% 3.8 mph E6.1 kmh E 6.9 mph11.1 kmh 30.03 in1016.9 mb 0.00 in0.0 mm 0.00 in0.0 mm 0.00 in0.0 mm
06:45 PM 71.6°F22.0°C 57.9°F14.4°C 62% 4.5 mph E7.2 kmh E 6.0 mph9.7 kmh 30.03 in1016.9 mb 0.00 in0.0 mm 0.00 in0.0 mm 0.00 in0.0 mm
07:00 PM 70.5°F21.4°C 58.6°F14.8°C 66% 1.6 mph ESE2.6 kmh ESE 4.5 mph7.2 kmh 30.03 in1016.9 mb 0.00 in0.0 mm 0.00 in0.0 mm 0.00 in0.0 mm
07:15 PM 70.3°F21.3°C 59.3°F15.2°C 68% 2.2 mph ENE3.5 kmh ENE 3.8 mph6.1 kmh 30.04 in1017.3 mb 0.00 in0.0 mm 0.00 in0.0 mm 0.00 in0.0 mm
07:30 PM 70.2°F21.2°C 59.1°F15.1°C 68% 1.6 mph E2.6 kmh E 3.8 mph6.1 kmh 30.04 in1017.3 mb 0.00 in0.0 mm 0.00 in0.0 mm 0.00 in0.0 mm
07:45 PM 70.3°F21.3°C 58.9°F14.9°C 67% 1.6 mph NE2.6 kmh NE 3.8 mph6.1 kmh 30.04 in1017.3 mb 0.00 in0.0 mm 0.00 in0.0 mm 0.00 in0.0 mm
08:00 PM 70.3°F21.3°C 59.3°F15.2°C 68% 1.6 mph SE2.6 kmh SE 3.1 mph5.0 kmh 30.04 in1017.3 mb 0.00 in0.0 mm 0.00 in0.0 mm 0.00 in0.0 mm
08:15 PM 70.2°F21.2°C 59.5°F15.3°C 69% 1.6 mph SE2.6 kmh SE 3.1 mph5.0 kmh 30.05 in1017.6 mb 0.00 in0.0 mm 0.00 in0.0 mm 0.00 in0.0 mm
08:30 PM 69.8°F21.0°C 60.0°F15.6°C 71% 1.6 mph S2.6 kmh S 4.5 mph7.2 kmh 30.06 in1017.9 mb 0.00 in0.0 mm 0.00 in0.0 mm 0.00 in0.0 mm
08:45 PM 69.4°F20.8°C 61.2°F16.2°C 75% 0.7 mph SW1.1 kmh SW 3.1 mph5.0 kmh 30.06 in1017.9 mb 0.00 in0.0 mm 0.00 in0.0 mm 0.00 in0.0 mm
09:00 PM 69.4°F20.8°C 61.6°F16.4°C 76% 3.1 mph W5.0 kmh W 5.4 mph8.7 kmh 30.07 in1018.3 mb 0.00 in0.0 mm 0.00 in0.0 mm 0.00 in0.0 mm
09:15 PM 69.3°F20.7°C 58.7°F14.8°C 69% Calm Calm 4.5 mph7.2 kmh 30.07 in1018.3 mb 0.00 in0.0 mm 0.00 in0.0 mm 0.00 in0.0 mm
09:30 PM 69.3°F20.7°C 59.5°F15.3°C 71% 0.7 mph WSW1.1 kmh WSW 2.2 mph3.5 kmh 30.07 in1018.3 mb 0.00 in0.0 mm 0.00 in0.0 mm 0.00 in0.0 mm
09:45 PM 68.9°F20.5°C 58.7°F14.8°C 70% 3.1 mph W5.0 kmh W 4.5 mph7.2 kmh 30.07 in1018.3 mb 0.00 in0.0 mm 0.00 in0.0 mm 0.00 in0.0 mm
10:00 PM 69.3°F20.7°C 59.5°F15.3°C 71% 0.7 mph W1.1 kmh W 3.8 mph6.1 kmh 30.07 in1018.3 mb 0.00 in0.0 mm 0.00 in0.0 mm 0.00 in0.0 mm
10:15 PM 68.4°F20.2°C 58.6°F14.8°C 71% 1.6 mph NW2.6 kmh NW 4.5 mph7.2 kmh 30.07 in1018.3 mb 0.00 in0.0 mm 0.00 in0.0 mm 0.00 in0.0 mm
10:30 PM 68.2°F20.1°C 59.2°F15.1°C 73% 3.8 mph N6.1 kmh N 4.5 mph7.2 kmh 30.07 in1018.3 mb 0.00 in0.0 mm 0.00 in0.0 mm 0.00 in0.0 mm
10:45 PM 67.6°F19.8°C 58.3°F14.6°C 72% 0.7 mph NNE1.1 kmh NNE 6.0 mph9.7 kmh 30.07 in1018.3 mb 0.00 in0.0 mm 0.00 in0.0 mm 0.00 in0.0 mm
11:00 PM 67.6°F19.8°C 57.9°F14.4°C 71% 1.6 mph N2.6 kmh N 3.8 mph6.1 kmh 30.07 in1018.3 mb 0.00 in0.0 mm 0.00 in0.0 mm 0.00 in0.0 mm
11:15 PM 67.3°F19.6°C 57.6°F14.2°C 71% Calm Calm 2.2 mph3.5 kmh 30.07 in1018.3 mb 0.00 in0.0 mm 0.00 in0.0 mm 0.00 in0.0 mm
11:30 PM 67.5°F19.7°C 58.1°F14.5°C 72% 0.7 mph NNE1.1 kmh NNE 3.1 mph5.0 kmh 30.07 in1018.3 mb 0.00 in0.0 mm 0.00 in0.0 mm 0.00 in0.0 mm
11:45 PM 67.5°F19.7°C 58.1°F14.5°C 72% 0.7 mph NNW1.1 kmh NNW 2.2 mph3.5 kmh 30.07 in1018.3 mb 0.00 in0.0 mm 0.00 in0.0 mm 0.00 in0.0 mm